createdAt,value
2019-05-10T00:00:10.993Z,99.90
2019-05-10T00:02:58.291Z,99.90
2019-05-10T00:05:46.474Z,99.90
2019-05-10T00:08:33.358Z,99.90
2019-05-10T00:11:06.772Z,99.90
2019-05-10T00:13:48.786Z,99.90
2019-05-10T00:16:17.854Z,99.90
2019-05-10T00:18:46.397Z,99.90
2019-05-10T00:21:14.884Z,99.90
2019-05-10T00:23:43.357Z,99.90
2019-05-10T00:26:11.929Z,99.90
2019-05-10T00:28:40.476Z,99.90
2019-05-10T00:31:08.972Z,99.90
2019-05-10T00:33:37.526Z,99.90
2019-05-10T00:36:06.167Z,99.90
2019-05-10T00:38:34.722Z,99.90
2019-05-10T00:41:03.277Z,99.90
2019-05-10T00:43:31.766Z,99.90
2019-05-10T00:46:00.350Z,99.90
2019-05-10T00:48:28.899Z,99.90
2019-05-10T00:50:57.455Z,99.90
2019-05-10T00:53:26.078Z,99.90
2019-05-10T00:55:54.634Z,99.90
2019-05-10T00:58:23.198Z,99.90
2019-05-10T01:00:51.788Z,99.90
2019-05-10T01:03:20.345Z,99.90
2019-05-10T01:05:48.894Z,99.90
2019-05-10T01:08:17.446Z,99.90
2019-05-10T01:10:46.018Z,99.90
2019-05-10T01:13:14.570Z,99.90
2019-05-10T01:15:46.809Z,99.90
2019-05-10T01:18:14.806Z,99.90
2019-05-10T01:20:43.364Z,99.90
2019-05-10T01:23:11.918Z,99.90
2019-05-10T01:25:40.503Z,99.90
2019-05-10T01:28:09.072Z,99.90
2019-05-10T01:30:37.612Z,99.90
2019-05-10T01:33:06.163Z,99.90
2019-05-10T01:35:34.633Z,99.90
2019-05-10T01:38:03.131Z,99.90
2019-05-10T01:40:31.683Z,99.90
2019-05-10T01:43:00.254Z,99.90
2019-05-10T01:45:28.806Z,99.90
2019-05-10T01:47:57.364Z,99.90
2019-05-10T01:50:25.842Z,99.90
2019-05-10T01:52:54.420Z,99.90
2019-05-10T01:55:22.902Z,99.90
2019-05-10T01:57:51.450Z,99.90
2019-05-10T02:00:20.258Z,99.90
2019-05-10T02:02:48.804Z,99.90
2019-05-10T02:05:17.810Z,99.90
2019-05-10T02:07:46.362Z,99.90
2019-05-10T02:10:15.260Z,99.90
2019-05-10T02:12:43.812Z,99.90
2019-05-10T02:15:13.466Z,99.90
2019-05-10T02:17:42.130Z,99.90
2019-05-10T02:20:10.865Z,99.90
2019-05-10T02:22:39.408Z,99.90
2019-05-10T02:25:08.524Z,99.90
2019-05-10T02:27:36.988Z,99.90
2019-05-10T02:30:07.299Z,99.90
2019-05-10T02:32:36.150Z,99.90
2019-05-10T02:35:07.149Z,99.90
2019-05-10T02:37:35.715Z,99.90
2019-05-10T02:40:05.828Z,99.90
2019-05-10T02:42:34.933Z,99.90
2019-05-10T02:45:05.599Z,99.90
2019-05-10T02:47:34.175Z,99.90
2019-05-10T02:50:02.942Z,99.90
2019-05-10T02:52:31.541Z,99.90
2019-05-10T02:55:00.468Z,99.90
2019-05-10T02:57:29.544Z,99.90
2019-05-10T02:59:59.151Z,99.90
2019-05-10T03:02:28.235Z,99.90
2019-05-10T03:04:59.965Z,99.90
2019-05-10T03:07:31.921Z,99.90
2019-05-10T03:10:01.415Z,99.90
2019-05-10T03:12:30.104Z,99.90
2019-05-10T03:14:59.106Z,99.90
2019-05-10T03:17:28.297Z,99.90
2019-05-10T03:19:56.921Z,99.90
2019-05-10T03:22:26.294Z,99.90
2019-05-10T03:24:55.173Z,99.90
2019-05-10T03:27:23.863Z,99.90
2019-05-10T03:29:52.692Z,99.90
2019-05-10T03:32:21.309Z,99.90
2019-05-10T03:34:49.926Z,99.90
2019-05-10T03:37:18.713Z,99.90
2019-05-10T03:39:47.394Z,99.90
2019-05-10T03:42:16.033Z,99.90
2019-05-10T03:44:44.572Z,99.90
2019-05-10T03:47:13.223Z,99.90
2019-05-10T03:49:41.771Z,99.90
2019-05-10T03:52:10.279Z,99.90
2019-05-10T03:54:38.839Z,99.90
2019-05-10T03:57:13.691Z,99.90
2019-05-10T03:59:37.606Z,99.90
2019-05-10T04:02:06.159Z,99.90
2019-05-10T04:04:34.786Z,99.90
2019-05-10T04:07:03.445Z,99.90
2019-05-10T04:09:32.006Z,99.90
2019-05-10T04:12:00.583Z,99.90
2019-05-10T04:14:29.169Z,99.90
2019-05-10T04:16:57.734Z,99.90
2019-05-10T04:19:26.212Z,99.90
2019-05-10T04:21:54.976Z,99.90
2019-05-10T04:24:23.441Z,99.90
2019-05-10T04:26:51.918Z,99.90
2019-05-10T04:29:20.503Z,99.90
2019-05-10T04:31:49.155Z,99.90
2019-05-10T04:34:17.730Z,99.90
2019-05-10T04:36:46.292Z,99.90
2019-05-10T04:39:14.839Z,99.90
2019-05-10T04:41:43.504Z,99.90
2019-05-10T04:44:12.061Z,99.90
2019-05-10T04:46:40.530Z,99.90
2019-05-10T04:49:09.098Z,99.90
2019-05-10T04:51:37.633Z,99.90
2019-05-10T04:54:06.193Z,99.90
2019-05-10T04:56:34.672Z,99.90
2019-05-10T04:59:03.259Z,99.90
2019-05-10T05:01:31.793Z,99.90
2019-05-10T05:04:00.366Z,99.90
2019-05-10T05:06:29.015Z,99.90
2019-05-10T05:08:57.954Z,99.90
2019-05-10T05:11:26.492Z,99.90
2019-05-10T05:13:54.960Z,99.90
2019-05-10T05:16:23.682Z,99.90
2019-05-10T05:18:52.230Z,99.90
2019-05-10T05:21:20.812Z,99.90
2019-05-10T05:23:49.366Z,99.90
2019-05-10T05:26:17.944Z,99.90
2019-05-10T05:28:46.498Z,99.90
2019-05-10T05:31:15.086Z,99.90
2019-05-10T05:33:43.636Z,99.90
2019-05-10T05:36:12.108Z,99.90
2019-05-10T05:38:47.257Z,99.90
2019-05-10T05:41:10.888Z,99.90
2019-05-10T05:43:45.803Z,99.90
2019-05-10T05:46:09.708Z,99.90
2019-05-10T05:48:40.273Z,99.90
2019-05-10T05:51:08.838Z,99.90
2019-05-10T05:53:42.496Z,99.90
2019-05-10T05:56:12.515Z,99.90
2019-05-10T05:58:43.672Z,99.90
2019-05-10T06:01:08.049Z,99.90
2019-05-10T06:03:36.529Z,99.90
2019-05-10T06:06:15.385Z,99.90
2019-05-10T06:08:35.450Z,99.90
2019-05-10T06:11:04.094Z,99.90
2019-05-10T06:13:32.744Z,99.90
2019-05-10T06:16:06.786Z,99.90
2019-05-10T06:18:31.488Z,99.90
2019-05-10T06:20:59.992Z,99.90
2019-05-10T06:23:32.959Z,99.90
2019-05-10T06:25:58.718Z,99.90
2019-05-10T06:28:56.516Z,99.90
2019-05-10T06:30:57.484Z,99.90
2019-05-10T06:33:26.047Z,99.90
2019-05-10T06:35:54.618Z,99.90
2019-05-10T06:38:23.162Z,99.90
2019-05-10T06:40:51.747Z,99.90
2019-05-10T06:43:20.356Z,99.90
2019-05-10T06:45:52.374Z,99.90
2019-05-10T06:48:27.482Z,99.90
2019-05-10T06:50:49.466Z,99.90
2019-05-10T06:53:18.016Z,99.90
2019-05-10T06:55:46.689Z,99.90
2019-05-10T06:58:15.356Z,99.90
2019-05-10T07:00:47.348Z,99.90
2019-05-10T07:03:14.117Z,99.90
2019-05-10T07:05:42.615Z,99.90
2019-05-10T07:08:19.696Z,99.90
2019-05-10T07:10:42.142Z,99.90
2019-05-10T07:13:10.909Z,99.90
2019-05-10T07:15:42.155Z,99.90
2019-05-10T07:18:09.816Z,99.90
2019-05-10T07:20:38.290Z,99.90
2019-05-10T07:23:07.916Z,99.90
2019-05-10T07:25:37.644Z,99.90
2019-05-10T07:28:09.691Z,99.90
2019-05-10T07:30:41.169Z,99.90
2019-05-10T07:33:08.036Z,99.90
2019-05-10T07:35:38.606Z,99.90
2019-05-10T07:38:06.878Z,99.90
2019-05-10T07:40:35.435Z,99.90
2019-05-10T07:43:04.059Z,99.90
2019-05-10T07:45:32.679Z,99.90
2019-05-10T07:48:02.289Z,99.90
2019-05-10T07:50:31.448Z,99.90
2019-05-10T07:53:00.023Z,99.90
2019-05-10T07:55:29.984Z,99.90
2019-05-10T07:58:04.403Z,99.90
2019-05-10T08:00:29.214Z,99.90
2019-05-10T08:03:07.562Z,99.90
2019-05-10T08:05:29.491Z,99.90
2019-05-10T08:07:58.806Z,99.90
2019-05-10T08:10:29.081Z,99.90
2019-05-10T08:12:59.489Z,99.90
2019-05-10T08:15:30.574Z,99.90
2019-05-10T08:17:58.782Z,99.90
2019-05-10T08:20:41.430Z,99.90
2019-05-10T08:22:57.640Z,99.90
2019-05-10T08:25:29.100Z,99.90
2019-05-10T08:27:56.488Z,99.90
2019-05-10T08:30:51.885Z,99.90
2019-05-10T08:33:14.020Z,99.90
2019-05-10T08:35:45.610Z,99.90
2019-05-10T08:38:12.972Z,99.90
2019-05-10T08:40:42.848Z,99.90
2019-05-10T08:43:15.607Z,99.90
2019-05-10T08:45:44.989Z,99.90
2019-05-10T08:48:12.767Z,99.90
2019-05-10T08:50:53.212Z,99.90
2019-05-10T08:53:16.396Z,99.90
2019-05-10T08:55:43.314Z,99.90
2019-05-10T08:58:12.461Z,99.90
2019-05-10T09:00:53.776Z,99.90
2019-05-10T09:03:18.051Z,99.90
2019-05-10T09:05:43.250Z,99.90
2019-05-10T09:08:19.587Z,99.90
2019-05-10T09:10:42.583Z,99.90
2019-05-10T09:13:12.903Z,99.90
2019-05-10T09:15:51.368Z,99.90
2019-05-10T09:18:12.751Z,99.90
2019-05-10T09:20:42.304Z,99.90
2019-05-10T09:23:17.959Z,99.90
2019-05-10T09:25:42.650Z,99.90
2019-05-10T09:28:16.497Z,99.90
2019-05-10T09:30:56.560Z,99.90
2019-05-10T09:33:14.464Z,99.90
2019-05-10T09:35:46.905Z,99.90
2019-05-10T09:38:12.720Z,99.90
2019-05-10T09:40:50.649Z,99.90
2019-05-10T09:43:12.472Z,99.90
2019-05-10T09:45:42.331Z,99.90
2019-05-10T09:48:12.047Z,99.90
2019-05-10T09:50:46.486Z,99.90
2019-05-10T09:53:13.599Z,99.70
2019-05-10T09:55:45.576Z,98.80
2019-05-10T09:58:11.615Z,98.50
2019-05-10T10:00:40.245Z,99.30
2019-05-10T10:03:08.746Z,98.00
2019-05-10T10:05:39.785Z,98.30
2019-05-10T10:08:09.280Z,99.00
2019-05-10T10:10:37.723Z,99.00
2019-05-10T10:13:11.739Z,99.50
2019-05-10T10:15:37.339Z,99.50
2019-05-10T10:18:06.395Z,99.10
2019-05-10T10:20:40.642Z,98.90
2019-05-10T10:23:07.372Z,99.00
2019-05-10T10:25:40.713Z,98.90
2019-05-10T10:28:08.294Z,98.40
2019-05-10T10:30:37.419Z,98.60
2019-05-10T10:33:11.720Z,98.70
2019-05-10T10:35:37.811Z,96.90
2019-05-10T10:38:07.990Z,96.50
2019-05-10T10:40:44.139Z,95.40
2019-05-10T10:43:07.767Z,95.10
2019-05-10T10:45:37.675Z,94.60
2019-05-10T10:48:08.463Z,93.10
2019-05-10T10:50:36.653Z,93.50
2019-05-10T10:53:07.790Z,92.10
2019-05-10T10:55:37.869Z,89.00
2019-05-10T10:58:07.407Z,85.60
2019-05-10T11:00:38.851Z,84.20
2019-05-10T11:03:06.780Z,83.90
2019-05-10T11:05:35.396Z,87.80
2019-05-10T11:08:04.038Z,90.50
2019-05-10T11:10:33.227Z,91.60
2019-05-10T11:13:10.187Z,91.90
2019-05-10T11:15:35.902Z,92.70
2019-05-10T11:18:02.352Z,92.50
2019-05-10T11:20:31.807Z,92.40
2019-05-10T11:23:00.674Z,92.00
2019-05-10T11:25:29.393Z,92.70
2019-05-10T11:28:00.973Z,92.70
2019-05-10T11:30:28.158Z,92.20
2019-05-10T11:32:56.709Z,91.90
2019-05-10T11:35:31.181Z,91.00
2019-05-10T11:37:55.505Z,90.80
2019-05-10T11:40:30.688Z,90.60
2019-05-10T11:42:54.445Z,90.10
2019-05-10T11:45:26.099Z,90.10
2019-05-10T11:47:58.764Z,90.00
2019-05-10T11:50:31.264Z,88.30
2019-05-10T11:52:54.229Z,87.30
2019-05-10T11:55:22.773Z,84.40
2019-05-10T11:58:01.859Z,84.90
2019-05-10T12:00:28.539Z,79.70
2019-05-10T12:03:12.598Z,79.40
2019-05-10T12:05:26.440Z,80.90
2019-05-10T12:07:54.718Z,71.70
2019-05-10T12:10:25.549Z,72.30
2019-05-10T12:15:25.356Z,77.30
2019-05-10T12:17:58.887Z,79.60
2019-05-10T12:20:38.993Z,81.10
2019-05-10T12:22:53.741Z,80.60
2019-05-10T12:25:42.018Z,79.90
2019-05-10T12:26:06.388Z,74.30
2019-05-10T12:27:52.662Z,79.70
2019-05-10T12:30:21.759Z,79.00
2019-05-10T12:33:05.940Z,78.50
2019-05-10T12:35:21.312Z,78.60
2019-05-10T12:37:54.105Z,78.00
2019-05-10T12:40:24.244Z,78.90
2019-05-10T12:42:51.186Z,78.00
2019-05-10T12:45:23.019Z,74.60
2019-05-10T12:47:51.683Z,68.80
2019-05-10T12:50:21.822Z,70.10
2019-05-10T12:53:02.602Z,70.20
2019-05-10T12:55:20.576Z,70.10
2019-05-10T12:57:49.124Z,72.50
2019-05-10T13:00:18.121Z,74.00
2019-05-10T13:02:51.060Z,73.80
2019-05-10T13:05:16.905Z,72.70
2019-05-10T13:07:45.639Z,74.00
2019-05-10T13:10:14.414Z,74.40
2019-05-10T13:12:47.129Z,71.10
2019-05-10T13:15:13.565Z,66.90
2019-05-10T13:17:50.337Z,69.90
2019-05-10T13:20:12.862Z,70.60
2019-05-10T13:22:41.339Z,68.10
2019-05-10T13:25:10.153Z,67.90
2019-05-10T13:27:38.986Z,68.10
2019-05-10T13:30:08.425Z,69.00
2019-05-10T13:32:37.049Z,66.00
2019-05-10T13:35:06.780Z,65.50
2019-05-10T13:37:35.438Z,67.40
2019-05-10T13:40:07.902Z,67.90
2019-05-10T13:42:42.661Z,67.70
2019-05-10T13:45:06.725Z,67.70
2019-05-10T13:47:35.285Z,68.40
2019-05-10T13:50:05.786Z,69.00
2019-05-10T13:52:38.038Z,68.50
2019-05-10T13:55:06.301Z,67.10
2019-05-10T13:57:34.849Z,67.70
2019-05-10T14:00:05.761Z,67.50
2019-05-10T14:02:34.879Z,65.30
2019-05-10T14:05:04.377Z,65.90
2019-05-10T14:07:32.929Z,63.70
2019-05-10T14:10:01.633Z,65.10
2019-05-10T14:12:30.231Z,65.80
2019-05-10T14:15:02.529Z,66.00
2019-05-10T14:17:28.993Z,66.70
2019-05-10T14:19:57.487Z,67.60
2019-05-10T14:22:26.038Z,67.30
2019-05-10T14:24:58.940Z,67.90
2019-05-10T14:27:30.037Z,69.00
2019-05-10T14:29:55.070Z,70.50
2019-05-10T14:32:23.799Z,72.10
2019-05-10T14:34:52.358Z,73.00
2019-05-10T14:37:21.665Z,72.60
2019-05-10T14:39:50.397Z,72.60
2019-05-10T14:42:23.814Z,69.90
2019-05-10T14:44:49.131Z,70.90
2019-05-10T14:47:17.681Z,70.90
2019-05-10T14:49:47.195Z,71.00
2019-05-10T14:52:16.429Z,70.50
2019-05-10T14:54:49.770Z,69.40
2019-05-10T14:57:15.139Z,69.60
2019-05-10T14:59:43.676Z,70.30
2019-05-10T15:02:16.924Z,68.20
2019-05-10T15:04:44.884Z,69.00
2019-05-10T15:07:14.451Z,70.40
2019-05-10T15:09:42.853Z,71.90
2019-05-10T15:12:16.304Z,70.60
2019-05-10T15:14:41.570Z,71.40
2019-05-10T15:17:10.200Z,71.40
2019-05-10T15:19:38.695Z,71.60
2019-05-10T15:22:07.253Z,72.40
2019-05-10T15:24:35.828Z,72.10
2019-05-10T15:27:04.451Z,71.20
2019-05-10T15:29:33.002Z,67.90
2019-05-10T15:32:01.516Z,67.70
2019-05-10T15:34:30.068Z,68.00
2019-05-10T15:37:02.569Z,69.30
2019-05-10T15:39:30.521Z,69.80
2019-05-10T15:42:00.861Z,72.70
2019-05-10T15:44:31.390Z,76.00
2019-05-10T15:46:59.825Z,77.60
2019-05-10T15:49:28.299Z,78.60
2019-05-10T15:52:16.336Z,80.60
2019-05-10T15:54:27.191Z,81.60
2019-05-10T15:56:56.023Z,81.00
2019-05-10T15:59:24.714Z,83.20
2019-05-10T16:01:53.378Z,84.20
2019-05-10T16:04:21.925Z,83.40
2019-05-10T16:06:50.473Z,82.20
2019-05-10T16:09:19.432Z,80.50
2019-05-10T16:11:48.084Z,80.20
2019-05-10T16:14:16.582Z,79.40
2019-05-10T16:16:45.129Z,80.60
2019-05-10T16:19:18.624Z,80.40
2019-05-10T16:21:46.717Z,81.20
2019-05-10T16:24:19.581Z,82.40
2019-05-10T16:26:44.385Z,82.40
2019-05-10T16:29:12.876Z,85.70
2019-05-10T16:31:41.353Z,88.10
2019-05-10T16:34:09.921Z,88.20
2019-05-10T16:36:38.470Z,87.80
2019-05-10T16:39:07.566Z,87.80
2019-05-10T16:41:36.129Z,87.70
2019-05-10T16:44:04.699Z,88.10
2019-05-10T16:46:33.249Z,88.50
2019-05-10T16:49:01.815Z,89.30
2019-05-10T16:51:30.358Z,89.40
2019-05-10T16:53:58.939Z,88.80
2019-05-10T16:56:27.493Z,88.30
2019-05-10T16:58:59.173Z,88.30
2019-05-10T17:01:27.780Z,88.30
2019-05-10T17:03:59.983Z,88.20
2019-05-10T17:06:26.716Z,89.40
2019-05-10T17:08:55.267Z,87.30
2019-05-10T17:11:23.831Z,87.00
2019-05-10T17:13:55.383Z,87.70
2019-05-10T17:16:22.611Z,87.40
2019-05-10T17:18:55.310Z,86.80
2019-05-10T17:21:21.401Z,85.80
2019-05-10T17:23:49.954Z,86.00
2019-05-10T17:26:18.504Z,86.40
2019-05-10T17:28:46.994Z,86.60
2019-05-10T17:31:15.544Z,87.00
2019-05-10T17:33:44.374Z,86.90
2019-05-10T17:36:14.639Z,87.00
2019-05-10T17:38:47.304Z,87.60
2019-05-10T17:41:13.432Z,88.20
2019-05-10T17:43:41.925Z,89.10
2019-05-10T17:46:16.623Z,90.00
2019-05-10T17:48:46.791Z,90.60
2019-05-10T17:51:11.029Z,90.70
2019-05-10T17:53:39.626Z,91.50
2019-05-10T17:56:08.120Z,91.80
2019-05-10T17:58:36.689Z,91.80
2019-05-10T18:01:05.243Z,92.30
2019-05-10T18:03:33.790Z,92.60
2019-05-10T18:06:02.284Z,92.70
2019-05-10T18:08:30.829Z,92.80
2019-05-10T18:11:03.782Z,93.20
2019-05-10T18:13:29.554Z,93.30
2019-05-10T18:15:58.157Z,93.60
2019-05-10T18:18:26.954Z,93.90
2019-05-10T18:20:55.527Z,93.90
2019-05-10T18:23:24.083Z,94.10
2019-05-10T18:25:58.357Z,94.70
2019-05-10T18:28:22.829Z,94.40
2019-05-10T18:30:52.559Z,94.90
2019-05-10T18:33:21.139Z,95.10
2019-05-10T18:35:53.010Z,95.30
2019-05-10T18:38:19.902Z,95.50
2019-05-10T18:40:48.481Z,95.50
2019-05-10T18:43:17.025Z,95.90
2019-05-10T18:45:45.533Z,96.30
2019-05-10T18:48:14.127Z,96.20
2019-05-10T18:50:45.431Z,96.40
2019-05-10T18:53:12.905Z,96.30
2019-05-10T18:55:41.481Z,96.50
2019-05-10T18:58:09.985Z,96.60
2019-05-10T19:00:40.224Z,96.70
2019-05-10T19:03:08.689Z,96.90
2019-05-10T19:05:37.185Z,97.10
2019-05-10T19:08:06.302Z,97.10
2019-05-10T19:10:35.031Z,97.20
2019-05-10T19:13:05.348Z,97.50
2019-05-10T19:15:33.801Z,97.90
2019-05-10T19:18:02.353Z,98.10
2019-05-10T19:20:30.826Z,98.40
2019-05-10T19:22:59.326Z,98.50
2019-05-10T19:25:27.869Z,98.50
2019-05-10T19:27:56.431Z,98.80
2019-05-10T19:30:24.977Z,98.90
2019-05-10T19:32:56.528Z,99.10
2019-05-10T19:35:23.683Z,99.30
2019-05-10T19:37:52.255Z,99.60
2019-05-10T19:40:21.591Z,99.60
2019-05-10T19:42:50.192Z,99.90
2019-05-10T19:45:20.812Z,99.90
2019-05-10T19:47:49.732Z,99.90
2019-05-10T19:50:24.272Z,99.90
2019-05-10T19:52:49.755Z,99.90
2019-05-10T19:55:19.249Z,99.90
2019-05-10T19:57:49.623Z,99.90
2019-05-10T20:00:20.505Z,99.90
2019-05-10T20:02:49.039Z,99.90
2019-05-10T20:05:17.678Z,99.90
2019-05-10T20:07:46.706Z,99.90
2019-05-10T20:10:15.734Z,99.90
2019-05-10T20:12:44.285Z,99.90
2019-05-10T20:15:13.118Z,99.90
2019-05-10T20:17:41.714Z,99.90
2019-05-10T20:20:10.565Z,99.90
2019-05-10T20:22:39.057Z,99.90
2019-05-10T20:25:08.174Z,99.90
2019-05-10T20:27:36.833Z,99.90
2019-05-10T20:30:07.325Z,99.90
2019-05-10T20:32:35.846Z,99.90
2019-05-10T20:35:06.634Z,99.90
2019-05-10T20:37:35.123Z,99.90
2019-05-10T20:40:04.449Z,99.90
2019-05-10T20:42:33.043Z,99.90
2019-05-10T20:45:07.353Z,99.90
2019-05-10T20:47:31.805Z,99.90
2019-05-10T20:50:00.288Z,99.90
2019-05-10T20:52:28.841Z,99.90
2019-05-10T20:54:57.468Z,99.90
2019-05-10T21:00:55.717Z,99.90
2019-05-10T21:03:24.302Z,99.90
2019-05-10T21:05:52.849Z,99.90
2019-05-10T21:08:21.417Z,99.90
2019-05-10T21:10:49.921Z,99.90
2019-05-10T21:13:18.465Z,99.90
2019-05-10T21:15:47.046Z,99.90
2019-05-10T21:18:15.581Z,99.90
2019-05-10T21:20:44.140Z,99.90
2019-05-10T21:23:12.687Z,99.90
2019-05-10T21:25:41.332Z,99.90
2019-05-10T21:28:09.873Z,99.90
2019-05-10T21:30:38.351Z,99.90
2019-05-10T21:33:06.921Z,99.90
2019-05-10T21:35:35.473Z,99.90
2019-05-10T21:38:04.038Z,99.90
2019-05-10T21:40:32.600Z,99.90
2019-05-10T21:43:01.282Z,99.90
2019-05-10T21:45:29.825Z,99.90
2019-05-10T21:47:58.304Z,99.90
2019-05-10T21:50:26.818Z,99.90
2019-05-10T21:52:55.367Z,99.90
2019-05-10T21:55:23.937Z,99.90
2019-05-10T21:57:52.481Z,99.90
2019-05-10T22:00:23.757Z,99.90
2019-05-10T22:02:52.464Z,99.90
2019-05-10T22:05:21.021Z,99.90
2019-05-10T22:07:49.563Z,99.90
2019-05-10T22:10:18.251Z,99.90
2019-05-10T22:12:46.818Z,99.90
2019-05-10T22:15:15.375Z,99.90
2019-05-10T22:17:43.919Z,99.90
2019-05-10T22:20:12.817Z,99.90
2019-05-10T22:22:41.439Z,99.90
2019-05-10T22:25:10.072Z,99.90
2019-05-10T22:27:38.546Z,99.90
2019-05-10T22:30:12.033Z,99.90
2019-05-10T22:32:38.459Z,99.90
2019-05-10T22:35:07.856Z,99.90
2019-05-10T22:37:36.406Z,99.90
2019-05-10T22:40:06.412Z,99.90
2019-05-10T22:42:34.902Z,99.90
2019-05-10T22:45:03.984Z,99.90
2019-05-10T22:47:32.608Z,99.90
2019-05-10T22:50:01.183Z,99.90
2019-05-10T22:52:29.748Z,99.90
2019-05-10T22:55:00.455Z,99.90
2019-05-10T22:57:28.444Z,99.90
2019-05-10T22:59:56.985Z,99.90
2019-05-10T23:02:25.468Z,99.90
2019-05-10T23:04:53.941Z,99.90
2019-05-10T23:07:22.459Z,99.90
2019-05-10T23:09:50.998Z,99.90
2019-05-10T23:12:19.550Z,99.90
2019-05-10T23:14:48.122Z,99.90
2019-05-10T23:17:16.616Z,99.90
2019-05-10T23:19:45.159Z,99.90
2019-05-10T23:22:13.678Z,99.90
2019-05-10T23:24:42.176Z,99.90
2019-05-10T23:27:10.654Z,99.90
2019-05-10T23:29:39.228Z,99.90
2019-05-10T23:32:07.722Z,99.90
2019-05-10T23:34:36.273Z,99.90
2019-05-10T23:37:04.854Z,99.90
2019-05-10T23:39:40.959Z,99.90
2019-05-10T23:42:03.815Z,99.90
2019-05-10T23:44:32.354Z,99.90
2019-05-10T23:47:00.837Z,99.90
2019-05-10T23:49:29.331Z,99.90
2019-05-10T23:51:57.893Z,99.90
2019-05-10T23:54:26.456Z,99.90
2019-05-10T23:56:54.959Z,99.90
2019-05-10T23:59:23.511Z,99.90
